Time;durP1;ratioP1;P1;durP2;ratioP2;P2;SDS_P1;SDS_P2;PMS_P1;PMS_P2;Temp;Humidity;BMP_temperature;BMP_pressure;BME280_temperature;BME280_humidity;BME280_pressure;Samples;Min_cycle;Max_cycle;Signal;HPM_P1;HPM_P2
2021/10/08 00:02:08;;;;;;;22.77;9.13;;;;;;;9.04;47.80;102904.83;1789540;80;21846;-73
2021/10/08 00:04:41;;;;;;;34.83;8.85;;;;;;;9.02;47.79;102902.28;1751794;82;21760;-75
2021/10/08 00:07:14;;;;;;;32.33;10.95;;;;;;;8.99;47.96;102900.44;1772886;81;21285;-74
2021/10/08 00:09:47;;;;;;;31.73;11.65;;;;;;;8.97;47.91;102895.08;1773171;81;21177;-74
2021/10/08 00:12:20;;;;;;;36.95;9.18;;;;;;;8.94;47.62;102886.30;1789567;80;21699;-75
2021/10/08 00:14:52;;;;;;;39.58;9.60;;;;;;;8.89;47.78;102896.59;1752500;82;21195;-81
2021/10/08 00:17:25;;;;;;;24.82;7.75;;;;;;;8.84;48.00;102899.09;1773595;81;21194;-81
2021/10/08 00:19:59;;;;;;;30.30;9.68;;;;;;;8.81;48.26;102899.46;1773638;81;21324;-68
2021/10/08 00:22:33;;;;;;;25.50;8.30;;;;;;;8.77;48.40;102903.69;1789831;80;21339;-81
2021/10/08 00:25:06;;;;;;;33.55;9.88;;;;;;;8.74;48.42;102896.27;1752390;82;21772;-83
2021/10/08 00:27:39;;;;;;;30.77;8.78;;;;;;;8.71;48.51;102892.00;1773659;81;21226;-81
2021/10/08 00:30:12;;;;;;;37.53;10.40;;;;;;;8.69;48.70;102893.25;1788153;78;21841;-76
2021/10/08 00:32:45;;;;;;;29.03;8.13;;;;;;;8.66;48.91;102899.16;1799375;80;21366;-76
2021/10/08 00:35:19;;;;;;;27.27;9.15;;;;;;;8.65;49.06;102898.32;1790588;80;21390;-75
2021/10/08 00:37:53;;;;;;;32.00;8.87;;;;;;;8.63;49.04;102900.41;1798820;80;22135;-76
2021/10/08 00:40:27;;;;;;;28.77;11.25;;;;;;;8.62;49.09;102899.23;1790594;80;21692;-77
2021/10/08 00:43:00;;;;;;;25.68;8.33;;;;;;;8.59;49.16;102894.94;1798770;78;21330;-77
2021/10/08 00:45:33;;;;;;;;;;;;;;;8.57;49.30;102897.56;1793257;79;21165;-74
2021/10/08 00:48:08;;;;;;;26.15;8.40;;;;;;;8.54;49.16;102900.70;1790707;78;20237;-75
2021/10/08 00:50:45;;;;;;;30.80;9.70;;;;;;;8.48;49.03;102909.27;1798652;80;21339;-74
2021/10/08 00:53:18;;;;;;;24.30;9.83;;;;;;;8.41;48.88;102911.60;1790435;79;21315;-75
2021/10/08 00:55:53;;;;;;;36.35;9.40;;;;;;;8.33;48.88;102909.78;1798908;78;21690;-75
2021/10/08 00:58:26;;;;;;;28.02;9.25;;;;;;;8.26;48.87;102908.00;1790887;80;21765;-81
2021/10/08 01:00:59;;;;;;;27.55;9.40;;;;;;;8.18;48.95;102911.67;1799383;80;21378;-67
2021/10/08 01:03:31;;;;;;;35.27;9.93;;;;;;;8.13;49.08;102907.23;1764402;80;21877;-83
2021/10/08 01:06:04;;;;;;;29.15;9.18;;;;;;;8.05;49.60;102907.33;1765235;81;21311;-82
2021/10/08 01:08:37;;;;;;;32.88;9.68;;;;;;;8.00;49.81;102905.65;1739625;81;21335;-68
2021/10/08 01:11:10;;;;;;;30.27;9.23;;;;;;;7.98;49.97;102909.14;1765988;81;21248;-89
2021/10/08 01:13:44;;;;;;;42.95;9.95;;;;;;;7.97;50.21;102919.84;1769500;78;21246;-75
2021/10/08 01:16:22;;;;;;;45.23;8.80;;;;;;;7.96;50.41;102919.51;1763839;81;21439;-75
2021/10/08 01:18:56;;;;;;;37.95;9.80;;;;;;;7.95;50.53;102914.19;1750646;81;21356;-74
2021/10/08 01:21:29;;;;;;;45.13;12.60;;;;;;;7.97;50.55;102917.62;1765268;81;21174;-74
2021/10/08 01:24:04;;;;;;;38.25;10.70;;;;;;;7.94;50.21;102924.38;1676217;84;21807;-76
2021/10/08 01:26:37;;;;;;;19.42;9.00;;;;;;;7.91;50.10;102921.98;1766275;81;22414;-74
2021/10/08 01:29:11;;;;;;;41.37;10.55;;;;;;;7.91;50.18;102919.75;1766241;81;21179;-74
2021/10/08 01:31:44;;;;;;;32.60;9.18;;;;;;;7.90;50.06;102920.27;1696089;84;21404;-75
2021/10/08 01:34:18;;;;;;;35.88;9.18;;;;;;;7.88;50.07;102918.73;1765750;81;21237;-76
2021/10/08 01:36:52;;;;;;;20.70;9.30;;;;;;;7.85;50.08;102919.97;1694920;84;21833;-75
2021/10/08 01:39:24;;;;;;;29.10;8.40;;;;;;;7.86;50.14;102920.83;1766092;81;21273;-77
2021/10/08 01:41:57;;;;;;;32.98;11.90;;;;;;;7.84;50.28;102925.16;1738182;81;21202;-77
2021/10/08 01:44:30;;;;;;;33.65;11.63;;;;;;;7.82;50.27;102922.25;1738666;81;21210;-75
2021/10/08 01:47:04;;;;;;;30.00;11.57;;;;;;;7.84;50.28;102925.16;1766232;81;21764;-75
2021/10/08 01:49:36;;;;;;;37.85;12.53;;;;;;;7.85;50.07;102924.66;1695981;84;21345;-74
2021/10/08 01:52:09;;;;;;;44.83;13.20;;;;;;;7.84;50.02;102933.46;1766236;81;21514;-76
2021/10/08 01:54:45;;;;;;;40.12;12.47;;;;;;;7.82;49.86;102931.42;1695749;84;21190;-76
2021/10/08 01:57:18;;;;;;;41.42;11.30;;;;;;;7.80;49.64;102939.05;1766326;81;21171;-76
2021/10/08 01:59:51;;;;;;;34.43;9.55;;;;;;;7.72;49.48;102933.58;1696004;84;21341;-75
2021/10/08 02:02:25;;;;;;;32.98;11.05;;;;;;;7.70;49.58;102934.30;1766198;81;21250;-76
2021/10/08 02:04:57;;;;;;;34.43;9.60;;;;;;;7.70;49.61;102934.80;1695851;84;21949;-76
2021/10/08 02:07:31;;;;;;;26.73;9.33;;;;;;;7.67;49.63;102937.45;1766190;81;21203;-76
2021/10/08 02:10:05;;;;;;;24.85;9.28;;;;;;;7.66;49.64;102934.86;1766092;81;21713;-75
2021/10/08 02:12:37;;;;;;;;;;;;;;;7.67;49.72;102929.66;1696479;80;21338;-83
2021/10/08 02:15:10;;;;;;;28.42;10.43;;;;;;;7.67;49.64;102931.92;1617426;88;20314;-69
2021/10/08 02:17:43;;;;;;;33.73;8.88;;;;;;;7.62;49.47;102934.88;1620515;87;21862;-76
2021/10/08 02:20:16;;;;;;;26.73;8.93;;;;;;;7.57;49.59;102935.45;1662040;86;21348;-77
2021/10/08 02:22:49;;;;;;;29.48;9.25;;;;;;;7.56;49.82;102926.83;1662008;86;21763;-77
2021/10/08 02:25:24;;;;;;;28.47;9.40;;;;;;;7.56;49.97;102937.88;1660734;86;21293;-67
2021/10/08 02:27:57;;;;;;;33.25;8.98;;;;;;;7.53;49.80;102935.47;1663119;86;21209;-68
2021/10/08 02:30:30;;;;;;;36.47;9.77;;;;;;;7.51;49.87;102933.94;1664261;86;21332;-68
2021/10/08 02:33:03;;;;;;;27.52;8.95;;;;;;;7.47;49.86;102936.22;1664714;86;21979;-68
2021/10/08 02:35:37;;;;;;;27.27;9.75;;;;;;;7.46;49.98;102940.53;1660263;86;21355;-68
2021/10/08 02:38:10;;;;;;;34.70;10.23;;;;;;;7.46;49.97;102936.39;1634071;88;21305;-68
2021/10/08 02:40:44;;;;;;;30.35;9.18;;;;;;;7.42;50.05;102935.06;1661909;86;21206;-67
2021/10/08 02:43:17;;;;;;;28.85;10.00;;;;;;;7.40;50.31;102937.12;1693215;78;21335;-73
2021/10/08 02:45:49;;;;;;;29.72;9.35;;;;;;;7.36;50.39;102935.80;1679811;85;21183;-77
2021/10/08 02:48:23;;;;;;;24.85;8.63;;;;;;;7.32;50.28;102926.69;1723021;83;21372;-73
2021/10/08 02:50:56;;;;;;;24.57;9.08;;;;;;;7.28;50.36;102940.02;1722870;83;21331;-68
2021/10/08 02:53:29;;;;;;;25.60;9.45;;;;;;;7.26;50.53;102932.95;1720577;83;21166;-85
2021/10/08 02:56:04;;;;;;;25.35;9.53;;;;;;;7.23;50.46;102930.54;1661385;85;21455;-68
2021/10/08 02:58:37;;;;;;;24.80;10.28;;;;;;;7.21;50.57;102929.88;1678883;85;21186;-76
2021/10/08 03:01:09;;;;;;;33.15;10.05;;;;;;;7.15;50.54;102926.46;1640337;86;21298;-67
2021/10/08 03:03:43;;;;;;;40.60;11.15;;;;;;;7.09;50.57;102925.81;1657609;86;21218;-84
2021/10/08 03:06:15;;;;;;;38.05;11.00;;;;;;;7.03;50.68;102927.38;1678672;85;21388;-63
2021/10/08 03:08:49;;;;;;;35.45;11.80;;;;;;;7.01;50.77;102931.39;1695144;84;21838;-76
2021/10/08 03:14:32;;;;;;;29.82;12.58;;;;;;;6.93;50.89;102935.56;1700263;83;21364;-67
2021/10/08 03:17:05;;;;;;;29.07;9.80;;;;;;;6.87;50.89;102931.64;1696625;82;21284;-69
2021/10/08 03:19:39;;;;;;;26.52;10.18;;;;;;;6.83;50.93;102939.09;1709322;83;21944;-68
2021/10/08 03:22:11;;;;;;;25.00;9.83;;;;;;;6.80;51.01;102939.44;1702422;83;21872;-69
2021/10/08 03:24:45;;;;;;;32.93;9.85;;;;;;;6.79;51.16;102940.48;1720053;82;21328;-69
2021/10/08 03:27:18;;;;;;;39.55;9.83;;;;;;;6.75;51.27;102939.12;1737556;82;21733;-70
2021/10/08 03:29:51;;;;;;;30.70;9.38;;;;;;;6.74;51.48;102935.52;1737738;82;21344;-69
2021/10/08 03:32:23;;;;;;;26.80;8.85;;;;;;;6.72;51.32;102937.57;1737357;82;21205;-69
2021/10/08 03:34:56;;;;;;;46.53;9.00;;;;;;;6.67;51.45;102937.78;1734993;82;21378;-68
2021/10/08 03:37:38;;;;;;;34.80;8.78;;;;;;;6.64;51.45;102940.89;1743491;82;21331;-68
2021/10/08 03:40:03;;;;;;;34.10;10.25;;;;;;;6.58;51.53;102943.86;1742397;82;21371;-68
2021/10/08 03:42:36;;;;;;;24.12;8.45;;;;;;;6.54;51.64;102947.16;1735590;79;21377;-74
2021/10/08 03:45:13;;;;;;;31.65;9.38;;;;;;;6.51;51.75;102944.74;1727934;83;21843;-73
2021/10/08 03:48:04;;;;;;;27.48;8.75;;;;;;;6.48;51.79;102938.22;1707389;84;22335;-76
2021/10/08 03:50:32;;;;;;;24.65;9.35;;;;;;;6.43;51.83;102944.78;1698541;82;21218;-74
2021/10/08 03:53:06;;;;;;;20.68;8.53;;;;;;;6.43;51.96;102943.41;1763739;80;21312;-75
2021/10/08 03:55:39;;;;;;;29.45;8.80;;;;;;;6.39;52.03;102947.05;1719083;82;21250;-75
2021/10/08 03:58:12;;;;;;;;;;;;;;;6.36;52.16;102941.02;1709059;83;21171;-71
2021/10/08 04:00:45;;;;;;;20.75;8.18;;;;;;;6.32;52.32;102947.41;1711562;82;20224;-74
2021/10/08 04:03:20;;;;;;;29.15;8.60;;;;;;;6.32;52.42;102944.66;1727950;81;21318;-72
2021/10/08 04:05:52;;;;;;;32.75;9.23;;;;;;;6.32;52.38;102938.27;1724129;81;21321;-72
2021/10/08 04:08:25;;;;;;;;;;;;;;;6.31;52.37;102937.92;1699902;82;21826;-72
2021/10/08 04:10:58;;;;;;;28.25;9.88;;;;;;;6.28;52.43;102944.66;1721944;81;21086;-75
2021/10/08 04:13:30;;;;;;;21.37;8.50;;;;;;;6.25;52.55;102948.30;1722900;83;21851;-71
2021/10/08 04:16:04;;;;;;;34.70;8.15;;;;;;;6.23;52.65;102949.00;1725434;83;21194;-71
2021/10/08 04:18:36;;;;;;;33.15;8.68;;;;;;;6.21;52.73;102942.77;1706497;83;21320;-73
2021/10/08 04:21:11;;;;;;;28.05;9.20;;;;;;;6.20;52.75;102946.58;1728049;83;21784;-72
2021/10/08 04:23:44;;;;;;;21.35;8.70;;;;;;;6.17;52.81;102942.80;1706083;84;21400;-81
2021/10/08 04:26:16;;;;;;;19.80;8.40;;;;;;;6.17;52.89;102946.41;1691755;82;21858;-75
2021/10/08 04:28:49;;;;;;;29.65;9.00;;;;;;;6.16;52.90;102945.23;1681770;84;21316;-70
2021/10/08 04:31:22;;;;;;;23.87;8.95;;;;;;;6.16;52.86;102950.74;1698394;84;21369;-74
2021/10/08 04:33:55;;;;;;;28.98;9.10;;;;;;;6.16;52.84;102942.47;1722146;83;21226;-70
2021/10/08 04:36:28;;;;;;;26.50;9.43;;;;;;;6.16;52.75;102938.34;1707002;82;21301;-70
2021/10/08 04:39:04;;;;;;;25.50;9.68;;;;;;;6.16;52.75;102938.34;1697717;84;21444;-72
2021/10/08 04:41:42;;;;;;;20.85;8.65;;;;;;;6.17;52.80;102941.42;1695232;82;21194;-71
2021/10/08 04:44:16;;;;;;;24.23;7.62;;;;;;;6.19;52.71;102945.73;1706252;82;21306;-70
2021/10/08 04:46:49;;;;;;;26.37;8.75;;;;;;;6.23;52.78;102952.59;1780255;80;21335;-73
2021/10/08 04:49:23;;;;;;;26.77;9.38;;;;;;;6.26;52.61;102943.11;1750349;80;21414;-71
2021/10/08 04:51:56;;;;;;;21.35;8.58;;;;;;;6.27;52.51;102945.70;1785003;79;21308;-74
2021/10/08 04:54:28;;;;;;;28.27;9.00;;;;;;;6.27;52.60;102943.45;1780470;79;21355;-72
2021/10/08 04:57:01;;;;;;;20.13;7.60;;;;;;;6.30;52.55;102950.00;1745062;79;21197;-77
2021/10/08 04:59:34;;;;;;;28.15;8.98;;;;;;;6.33;52.57;102951.02;1714002;84;21425;-68
2021/10/08 05:02:07;;;;;;;35.07;9.77;;;;;;;6.38;52.49;102944.45;1706015;84;21351;-80
2021/10/08 05:04:40;;;;;;;24.65;8.10;;;;;;;6.43;52.46;102946.16;1703775;82;21858;-78
2021/10/08 05:07:13;;;;;;;25.97;8.88;;;;;;;6.48;52.38;102949.25;1713709;84;21213;-70
2021/10/08 05:09:45;;;;;;;22.30;8.95;;;;;;;6.53;52.15;102942.69;1669428;86;21270;-68
2021/10/08 05:12:18;;;;;;;34.27;9.13;;;;;;;6.58;52.11;102947.12;1660055;86;21505;-75
2021/10/08 05:14:54;;;;;;;25.10;9.15;;;;;;;6.64;51.90;102945.03;1637281;86;21218;-68
2021/10/08 05:17:27;;;;;;;18.52;8.80;;;;;;;6.69;51.89;102946.23;1663098;86;21385;-73
2021/10/08 05:20:00;;;;;;;31.12;9.08;;;;;;;6.75;51.65;102945.52;1669761;86;21282;-77
2021/10/08 05:22:34;;;;;;;24.95;9.48;;;;;;;6.81;51.63;102944.79;1661427;84;22583;-67
2021/10/08 05:25:08;;;;;;;25.65;8.95;;;;;;;6.91;51.63;102947.33;1663289;86;21791;-72
2021/10/08 05:27:40;;;;;;;;;;;;;;;7.02;51.45;102950.52;1676201;85;21785;-74
2021/10/08 05:30:17;;;;;;;28.07;8.98;;;;;;;7.15;51.06;102947.18;1642111;86;20222;-72
2021/10/08 05:32:50;;;;;;;28.42;8.55;;;;;;;7.24;50.83;102946.40;1718694;82;21752;-71
2021/10/08 05:35:24;;;;;;;28.17;9.85;;;;;;;7.38;50.77;102952.53;1712304;84;21194;-81
2021/10/08 05:37:56;;;;;;;25.20;9.13;;;;;;;7.52;50.43;102953.61;1713545;84;21209;-81
2021/10/08 05:40:30;;;;;;;26.55;9.10;;;;;;;7.68;50.54;102952.98;1710312;84;21336;-70
2021/10/08 05:43:05;;;;;;;31.65;9.03;;;;;;;7.88;50.08;102954.17;1711896;84;21325;-77
2021/10/08 05:45:42;;;;;;;22.90;9.05;;;;;;;8.11;49.69;102955.50;1669992;86;21211;-82
2021/10/08 05:48:15;;;;;;;23.70;9.75;;;;;;;8.42;49.18;102952.94;1664970;86;21395;-82
2021/10/08 05:50:48;;;;;;;23.43;8.67;;;;;;;8.77;48.69;102952.67;1667570;84;21776;-68
2021/10/08 05:53:21;;;;;;;20.10;9.93;;;;;;;9.20;48.16;102944.78;1652797;86;21808;-78
2021/10/08 05:55:56;;;;;;;33.73;11.78;;;;;;;9.59;47.67;102949.34;1644663;87;22480;-70
2021/10/08 05:58:32;;;;;;;38.55;12.28;;;;;;;9.93;46.97;102943.91;1654852;85;22028;-75
2021/10/08 06:01:15;;;;;;;29.50;8.50;;;;;;;10.23;46.60;102950.50;1689105;85;21296;-78
2021/10/08 06:03:48;;;;;;;31.02;9.00;;;;;;;10.47;46.58;102953.31;1648653;86;21342;-74
2021/10/08 06:06:20;;;;;;;24.85;9.13;;;;;;;10.53;46.41;102957.50;1689931;85;21325;-82
2021/10/08 06:08:53;;;;;;;19.90;8.23;;;;;;;10.54;46.26;102959.25;1692558;85;21345;-81
2021/10/08 06:11:30;;;;;;;17.85;7.15;;;;;;;10.44;46.55;102957.36;1674250;85;21263;-70
2021/10/08 06:14:04;;;;;;;19.70;8.03;;;;;;;10.39;46.92;102951.55;1690022;85;21415;-82
2021/10/08 06:16:40;;;;;;;26.97;8.30;;;;;;;10.33;47.15;102948.75;1691689;85;21329;-74
2021/10/08 06:19:13;;;;;;;28.10;8.25;;;;;;;10.27;47.28;102953.17;1673507;86;21357;-74
2021/10/08 06:21:48;;;;;;;26.97;7.95;;;;;;;10.21;47.14;102953.14;1691879;84;21175;-76
2021/10/08 06:24:25;;;;;;;25.52;8.50;;;;;;;10.19;47.37;102946.40;1691724;85;21321;-70
2021/10/08 06:26:58;;;;;;;17.10;6.97;;;;;;;10.18;47.38;102954.41;1674654;86;21358;-82
2021/10/08 06:29:30;;;;;;;21.77;8.05;;;;;;;10.11;47.37;102947.95;1691858;85;21384;-72
2021/10/08 06:32:06;;;;;;;27.37;9.47;;;;;;;10.02;47.62;102947.72;1672589;85;21386;-70
2021/10/08 06:34:38;;;;;;;18.40;7.60;;;;;;;9.96;47.88;102949.05;1673626;86;21554;-67
2021/10/08 06:37:13;;;;;;;18.13;8.00;;;;;;;9.96;48.17;102949.05;1691241;85;21819;-76
2021/10/08 06:39:49;;;;;;;32.17;7.80;;;;;;;9.95;48.24;102947.33;1692289;85;21647;-76
2021/10/08 06:42:25;;;;;;;28.85;8.25;;;;;;;9.92;48.26;102949.13;1672546;86;21334;-81
2021/10/08 06:45:01;;;;;;;30.02;9.75;;;;;;;9.86;48.24;102938.84;1691566;84;21317;-81
2021/10/08 06:47:34;;;;;;;25.12;8.60;;;;;;;9.80;48.28;102934.92;1693760;85;21318;-70
2021/10/08 06:50:08;;;;;;;26.73;8.83;;;;;;;9.83;48.80;102942.88;1672463;86;21353;-69
2021/10/08 06:52:42;;;;;;;27.93;8.30;;;;;;;9.89;48.57;102935.13;1673919;85;21325;-69
2021/10/08 06:55:15;;;;;;;29.85;7.37;;;;;;;9.93;48.51;102935.07;1692002;81;21326;-69
2021/10/08 06:57:49;;;;;;;23.67;8.25;;;;;;;9.98;48.74;102939.45;1694650;85;21191;-66
2021/10/08 07:00:23;;;;;;;18.00;7.50;;;;;;;10.03;48.50;102933.33;1709320;84;21839;-70
2021/10/08 07:03:02;;;;;;;18.12;8.95;;;;;;;10.08;48.66;102933.07;1710363;84;21155;-67
2021/10/08 07:05:33;;;;;;;32.00;8.33;;;;;;;10.14;48.70;102930.00;1709139;84;21249;-76
2021/10/08 07:08:06;;;;;;;28.80;9.90;;;;;;;10.22;48.47;102942.36;1707278;84;21324;-84
2021/10/08 07:10:40;;;;;;;31.87;8.40;;;;;;;10.28;48.40;102930.45;1706949;84;21194;-69
2021/10/08 07:13:13;;;;;;;19.00;8.30;;;;;;;10.32;48.68;102931.22;1707588;84;21238;-70
2021/10/08 07:15:46;;;;;;;20.12;8.20;;;;;;;10.43;48.32;102932.03;1706477;83;21151;-76
2021/10/08 07:18:24;;;;;;;28.00;8.95;;;;;;;10.54;48.07;102926.43;1668782;84;21201;-66
2021/10/08 07:20:55;;;;;;;34.27;9.38;;;;;;;10.64;48.11;102929.15;1694448;84;21190;-71
2021/10/08 07:23:28;;;;;;;21.85;8.25;;;;;;;10.79;47.80;102932.66;1706777;84;21854;-77
2021/10/08 07:26:00;;;;;;;22.20;8.05;;;;;;;10.93;47.07;102925.21;1699097;84;21882;-73
2021/10/08 07:28:33;;;;;;;21.35;8.43;;;;;;;11.01;46.82;102924.50;1706966;84;21395;-77
2021/10/08 07:31:07;;;;;;;28.32;8.70;;;;;;;11.13;46.70;102927.00;1703658;84;21348;-69
2021/10/08 07:33:43;;;;;;;16.07;7.40;;;;;;;11.27;46.32;102928.77;1677826;85;21673;-71
2021/10/08 07:36:17;;;;;;;26.40;8.93;;;;;;;11.39;46.51;102927.09;1706666;84;21372;-78
2021/10/08 07:38:49;;;;;;;28.83;8.30;;;;;;;11.56;46.22;102922.81;1704578;84;21356;-68
2021/10/08 07:41:24;;;;;;;26.85;8.08;;;;;;;11.66;45.38;102930.25;1698584;84;21882;-78
2021/10/08 07:43:59;;;;;;;20.52;7.87;;;;;;;11.72;44.87;102934.97;1703423;84;21226;-74
2021/10/08 07:46:32;;;;;;;29.92;7.70;;;;;;;11.78;45.25;102932.73;1706224;84;21249;-79
2021/10/08 07:49:08;;;;;;;24.20;8.13;;;;;;;11.91;45.22;102932.72;1699115;84;21380;-79
2021/10/08 07:51:41;;;;;;;18.40;7.53;;;;;;;12.03;45.15;102934.31;1706593;84;21221;-73
2021/10/08 07:54:14;;;;;;;34.95;9.55;;;;;;;12.13;44.88;102937.02;1704987;84;21399;-77
2021/10/08 07:56:47;;;;;;;25.52;8.05;;;;;;;12.19;43.67;102927.80;1706978;84;21328;-70
2021/10/08 07:59:19;;;;;;;16.30;6.55;;;;;;;12.16;43.83;102921.80;1699927;82;21340;-73
2021/10/08 08:01:52;;;;;;;22.02;8.08;;;;;;;12.16;43.80;102928.20;1728161;83;21859;-69
2021/10/08 08:04:24;;;;;;;17.07;7.22;;;;;;;12.22;43.81;102934.86;1706916;83;21352;-81
2021/10/08 08:06:56;;;;;;;25.17;7.22;;;;;;;12.26;43.50;102928.63;1689893;84;21231;-79
2021/10/08 08:09:29;;;;;;;28.38;9.23;;;;;;;12.32;43.63;102922.72;1716719;83;21196;-75
2021/10/08 08:12:02;;;;;;;29.77;9.78;;;;;;;12.37;43.58;102923.80;1689750;84;21357;-71
2021/10/08 08:14:34;;;;;;;19.20;7.65;;;;;;;12.43;43.64;102924.84;1704069;82;21380;-87
2021/10/08 08:17:07;;;;;;;27.80;8.05;;;;;;;12.49;43.03;102919.27;1721445;83;21333;-71
2021/10/08 08:19:42;;;;;;;19.17;6.95;;;;;;;12.50;42.87;102920.98;1689936;83;21249;-82
2021/10/08 08:22:14;;;;;;;20.57;8.03;;;;;;;12.48;43.32;102911.13;1693742;83;21293;-88
2021/10/08 08:25:01;;;;;;;30.07;8.90;;;;;;;12.55;43.37;102922.58;1737340;81;21160;-88
2021/10/08 08:27:29;;;;;;;21.40;8.20;;;;;;;12.63;43.37;102912.58;1714881;81;21265;-84
2021/10/08 08:30:05;;;;;;;26.68;8.43;;;;;;;12.72;43.04;102916.81;1725531;83;21324;-71
2021/10/08 08:32:39;;;;;;;23.00;7.58;;;;;;;12.78;42.95;102920.67;1683307;85;21358;-73
2021/10/08 08:35:14;;;;;;;28.62;8.38;;;;;;;12.85;42.42;102922.33;1719812;83;21177;-72
2021/10/08 08:37:58;;;;;;;30.77;9.05;;;;;;;12.84;42.58;102924.81;1689047;85;21230;-75
2021/10/08 08:40:40;;;;;;;26.65;8.13;;;;;;;12.84;42.54;102926.77;1695777;83;21355;-66
2021/10/08 08:43:13;;;;;;;26.68;7.97;;;;;;;12.82;42.67;102922.80;1726008;83;21407;-67
2021/10/08 08:45:46;;;;;;;23.62;7.80;;;;;;;12.81;42.57;102924.40;1688563;85;22023;-79
2021/10/08 08:48:22;;;;;;;35.78;8.28;;;;;;;12.71;42.83;102929.05;1726623;83;21189;-72
2021/10/08 08:50:53;;;;;;;32.23;8.35;;;;;;;12.63;42.47;102920.94;1688586;85;21238;-76
2021/10/08 08:53:26;;;;;;;24.60;7.90;;;;;;;12.56;42.69;102920.63;1667666;85;21741;-76
2021/10/08 08:55:59;;;;;;;17.93;7.77;;;;;;;12.47;42.71;102914.44;1727093;83;21395;-80
2021/10/08 08:58:33;;;;;;;35.05;8.88;;;;;;;12.41;42.84;102915.30;1688793;85;21488;-80
2021/10/08 09:01:06;;;;;;;32.40;9.03;;;;;;;12.40;43.11;102913.59;1721719;81;21350;-77
2021/10/08 09:03:39;;;;;;;36.58;10.90;;;;;;;12.37;43.58;102912.66;1676614;85;21485;-79
2021/10/08 09:06:13;;;;;;;30.27;8.90;;;;;;;12.40;43.83;102912.76;1707179;84;21329;-73
2021/10/08 09:08:46;;;;;;;34.78;14.07;;;;;;;12.43;43.58;102909.00;1693458;85;21384;-75
2021/10/08 09:11:20;;;;;;;27.77;7.53;;;;;;;12.48;43.56;102913.35;1706484;84;21332;-73
2021/10/08 09:13:58;;;;;;;31.50;8.10;;;;;;;12.48;43.21;102892.45;1706737;84;21907;-75
2021/10/08 09:16:33;;;;;;;25.23;7.62;;;;;;;12.48;43.55;102900.81;1656596;85;21254;-81
2021/10/08 09:19:05;;;;;;;26.20;7.53;;;;;;;12.49;43.44;102902.55;1706659;84;21324;-77
2021/10/08 09:21:38;;;;;;;30.52;7.45;;;;;;;12.52;43.52;102897.91;1657070;85;21250;-69
2021/10/08 09:24:19;;;;;;;26.30;7.67;;;;;;;12.57;43.66;102912.05;1706336;84;21336;-73
2021/10/08 09:26:56;;;;;;;25.90;7.05;;;;;;;12.60;43.52;102890.70;1631492;85;21811;-76
2021/10/08 09:29:30;;;;;;;28.07;6.87;;;;;;;12.67;43.78;102897.66;1701026;84;21355;-74
2021/10/08 09:32:03;;;;;;;25.45;6.42;;;;;;;12.73;43.83;102896.25;1706396;84;21906;-73
2021/10/08 09:34:37;;;;;;;29.00;7.33;;;;;;;12.82;43.63;102902.41;1678098;85;21365;-69
2021/10/08 09:37:12;;;;;;;31.90;7.00;;;;;;;12.89;43.65;102892.11;1676703;85;21935;-72
2021/10/08 09:39:46;;;;;;;20.72;6.87;;;;;;;12.94;43.25;102898.72;1706557;83;21420;-79
2021/10/08 09:42:21;;;;;;;30.50;6.80;;;;;;;12.96;43.47;102889.61;1655978;85;21214;-72
2021/10/08 09:44:54;;;;;;;30.75;8.20;;;;;;;12.97;43.12;102891.31;1685101;84;21205;-79
2021/10/08 09:47:27;;;;;;;33.98;7.28;;;;;;;12.99;43.35;102887.79;1676758;85;21730;-81
2021/10/08 09:50:12;;;;;;;23.27;6.87;;;;;;;13.00;43.54;102878.34;1706614;84;21878;-78
2021/10/08 09:52:45;;;;;;;20.02;5.60;;;;;;;13.04;43.80;102870.37;1676701;85;21750;-71
2021/10/08 09:55:18;;;;;;;25.43;6.22;;;;;;;13.11;43.42;102871.19;1706632;84;21328;-70
2021/10/08 10:00:57;;;;;;;16.02;5.58;;;;;;;13.17;43.94;102857.22;1706517;84;21190;-74
2021/10/08 10:03:23;;;;;;;25.10;6.75;;;;;;;13.22;44.01;102856.02;1677083;84;21270;-71
2021/10/08 10:06:01;;;;;;;25.05;5.90;;;;;;;13.26;43.52;102860.59;1690066;83;21343;-70
2021/10/08 10:08:33;;;;;;;31.95;7.42;;;;;;;13.29;43.72;102854.55;1714508;84;21795;-79
2021/10/08 10:11:06;;;;;;;30.40;8.03;;;;;;;13.32;44.06;102856.34;1714704;84;21193;-78
2021/10/08 10:13:40;;;;;;;26.30;6.28;;;;;;;13.38;44.13;102853.21;1714879;84;21384;-73
2021/10/08 10:16:16;;;;;;;36.80;7.55;;;;;;;13.41;44.46;102845.24;1714657;84;21198;-77
2021/10/08 10:18:51;;;;;;;35.43;6.50;;;;;;;13.48;44.44;102848.83;1714351;84;21324;-76
2021/10/08 10:21:27;;;;;;;33.02;6.58;;;;;;;13.52;44.35;102857.05;1714434;84;21387;-70
2021/10/08 10:24:02;;;;;;;29.32;6.78;;;;;;;13.53;43.86;102853.20;1714488;84;21202;-81
2021/10/08 10:26:35;;;;;;;22.42;6.17;;;;;;;13.52;44.06;102844.48;1714267;83;21182;-72
2021/10/08 10:29:08;;;;;;;24.67;8.20;;;;;;;13.55;44.56;102844.58;1707681;84;21238;-77
2021/10/08 10:31:43;;;;;;;29.20;6.47;;;;;;;13.60;44.42;102836.37;1714434;84;21332;-72
2021/10/08 10:34:16;;;;;;;24.57;7.97;;;;;;;13.63;44.43;102839.56;1714571;84;21364;-83
2021/10/08 10:36:49;;;;;;;;;;;;;;;13.66;44.63;102831.28;1717032;84;21439;-69
2021/10/08 10:39:22;;;;;;;34.75;7.90;;;;;;;13.72;45.36;102831.77;1681623;84;20567;-78
2021/10/08 10:42:14;;;;;;;39.60;7.40;;;;;;;13.72;45.36;102831.77;1714526;84;21354;-70
2021/10/08 10:45:16;;;;;;;40.25;7.45;;;;;;;13.79;45.20;102837.61;1714630;84;21367;-73
2021/10/08 10:47:47;;;;;;;29.42;6.45;;;;;;;13.81;45.25;102833.20;1713739;83;21221;-75
2021/10/08 10:50:28;;;;;;;36.65;7.85;;;;;;;13.87;45.15;102842.05;1714503;84;21237;-77
2021/10/08 10:53:02;;;;;;;42.73;6.95;;;;;;;13.95;44.79;102849.61;1714577;84;21337;-69
2021/10/08 10:55:38;;;;;;;38.53;7.25;;;;;;;13.95;44.79;102849.61;1714471;84;21347;-71
2021/10/08 10:58:14;;;;;;;26.33;6.62;;;;;;;13.98;44.84;102835.16;1714414;82;21242;-73
2021/10/08 11:00:51;;;;;;;29.18;7.50;;;;;;;13.98;44.84;102835.16;1685893;84;21254;-83
2021/10/08 11:03:34;;;;;;;27.65;6.42;;;;;;;13.99;44.83;102832.67;1715701;84;21433;-75
2021/10/08 11:06:10;;;;;;;32.48;5.85;;;;;;;14.04;44.99;102837.56;1718019;82;21396;-69
2021/10/08 11:09:11;;;;;;;39.03;7.42;;;;;;;14.05;44.92;102830.36;1718704;84;21273;-78
2021/10/08 11:11:44;;;;;;;27.95;5.30;;;;;;;14.03;45.12;102828.34;1717125;84;21246;-70
2021/10/08 11:14:22;;;;;;;30.37;5.75;;;;;;;14.01;45.36;102822.14;1716689;80;21889;-72
2021/10/08 11:16:55;;;;;;;27.30;6.35;;;;;;;13.99;45.62;102822.89;1718758;83;21732;-72
2021/10/08 11:19:41;;;;;;;38.70;8.30;;;;;;;13.99;45.71;102820.10;1698078;83;21193;-82
2021/10/08 11:22:13;;;;;;;33.80;7.00;;;;;;;14.00;46.01;102823.20;1718997;83;21260;-74
2021/10/08 11:24:46;;;;;;;31.20;5.50;;;;;;;14.00;45.86;102814.82;1696460;83;21257;-80
2021/10/08 11:27:20;;;;;;;40.43;6.72;;;;;;;14.01;45.48;102816.56;1717292;83;21346;-80
2021/10/08 11:29:53;;;;;;;24.27;6.92;;;;;;;14.02;45.19;102813.20;1719008;83;21854;-71
2021/10/08 11:32:36;;;;;;;28.50;5.83;;;;;;;14.01;45.55;102815.69;1718805;83;21387;-80
2021/10/08 11:35:19;;;;;;;29.10;6.47;;;;;;;14.00;45.79;102804.20;1719152;83;21316;-79
2021/10/08 11:37:51;;;;;;;21.07;6.17;;;;;;;14.01;45.91;102808.70;1719173;83;21347;-72
2021/10/08 11:40:42;;;;;;;28.92;6.33;;;;;;;14.00;45.68;102804.20;1718936;83;21877;-78
2021/10/08 11:43:33;;;;;;;25.95;6.28;;;;;;;13.99;45.17;102803.34;1718788;83;21202;-79
2021/10/08 11:52:00;;;;;;;30.65;5.35;;;;;;;14.01;45.47;102812.89;1731188;82;21415;-75
2021/10/08 11:54:34;;;;;;;27.42;5.33;;;;;;;14.02;45.65;102807.61;1733976;81;21407;-81
2021/10/08 11:57:12;;;;;;;35.35;5.75;;;;;;;14.04;45.81;102818.00;1728663;82;21396;-76
2021/10/08 11:59:58;;;;;;;28.45;6.25;;;;;;;14.05;46.07;102803.81;1726952;82;21818;-75
2021/10/08 12:02:38;;;;;;;22.60;5.45;;;;;;;14.05;46.07;102803.81;1729781;82;21374;-75
2021/10/08 12:05:15;;;;;;;29.25;5.53;;;;;;;14.08;45.99;102806.69;1727955;82;21715;-76
2021/10/08 12:08:02;;;;;;;21.40;5.42;;;;;;;14.11;46.17;102811.27;1729435;81;21344;-79